Time;durP1;ratioP1;P1;durP2;ratioP2;P2;SDS_P1;SDS_P2;PMS_P1;PMS_P2;Temp;Humidity;BMP_temperature;BMP_pressure;BME280_temperature;BME280_humidity;BME280_pressure;Samples;Min_cycle;Max_cycle;Signal;HPM_P1;HPM_P2
2023/12/21 00:01:37;;;;;;;0.20;0.20;;;9.80;91.80;;;;;;5087991;28;20113;-68
2023/12/21 00:04:03;;;;;;;0.00;0.00;;;9.80;91.80;;;;;;5088037;28;20090;-68
2023/12/21 00:06:30;;;;;;;0.00;0.00;;;9.80;91.60;;;;;;5088142;28;20123;-68
2023/12/21 00:08:55;;;;;;;0.10;0.10;;;9.80;91.80;;;;;;5088191;28;20131;-68
2023/12/21 00:11:21;;;;;;;0.03;0.03;;;9.70;91.90;;;;;;5088369;28;20152;-68
2023/12/21 00:13:47;;;;;;;0.00;0.00;;;9.70;91.60;;;;;;5088000;28;20071;-68
2023/12/21 00:16:13;;;;;;;0.00;0.00;;;9.70;91.80;;;;;;5088110;28;20132;-68
2023/12/21 00:18:39;;;;;;;0.35;0.35;;;9.70;91.80;;;;;;5088098;28;20469;-68
2023/12/21 00:21:05;;;;;;;0.00;0.00;;;9.70;91.90;;;;;;5088704;28;20075;-68
2023/12/21 00:23:31;;;;;;;0.00;0.00;;;9.80;91.90;;;;;;5088674;28;20051;-68
2023/12/21 00:25:56;;;;;;;0.05;0.05;;;9.80;91.70;;;;;;5086834;28;20043;-69
2023/12/21 00:28:22;;;;;;;0.98;0.98;;;9.80;91.90;;;;;;5088025;28;20048;-68
2023/12/21 00:30:48;;;;;;;0.00;0.00;;;9.80;91.60;;;;;;5071011;28;20123;-69
2023/12/21 00:33:13;;;;;;;1.27;1.25;;;9.80;91.70;;;;;;5088016;28;20077;-69
2023/12/21 00:35:39;;;;;;;0.00;0.00;;;9.80;91.90;;;;;;5088127;28;20040;-69
2023/12/21 00:38:05;;;;;;;0.00;0.00;;;9.70;91.90;;;;;;5088054;28;20086;-69
2023/12/21 00:40:30;;;;;;;0.00;0.00;;;9.80;91.90;;;;;;5087521;28;20044;-69
2023/12/21 00:42:57;;;;;;;0.00;0.00;;;9.80;91.80;;;;;;5087701;28;20495;-69
2023/12/21 00:45:23;;;;;;;0.00;0.00;;;9.80;91.70;;;;;;5088077;28;20055;-69
2023/12/21 00:47:48;;;;;;;0.55;0.55;;;9.80;91.80;;;;;;5087794;28;20040;-69
2023/12/21 00:50:15;;;;;;;0.10;0.10;;;9.80;91.80;;;;;;5088037;28;20032;-68
2023/12/21 00:52:41;;;;;;;0.00;0.00;;;9.80;91.90;;;;;;5087066;28;20044;-69
2023/12/21 00:55:07;;;;;;;0.00;0.00;;;9.80;91.80;;;;;;5087757;28;20052;-69
2023/12/21 00:57:32;;;;;;;0.17;0.17;;;9.80;92.00;;;;;;5087562;28;20704;-69
2023/12/21 00:59:58;;;;;;;0.00;0.00;;;9.80;92.10;;;;;;5087640;28;20048;-68
2023/12/21 01:02:24;;;;;;;0.10;0.10;;;9.80;92.10;;;;;;5086936;28;20051;-68
2023/12/21 01:04:49;;;;;;;0.00;0.00;;;9.70;92.50;;;;;;5087104;28;20047;-69
2023/12/21 01:07:15;;;;;;;0.00;0.00;;;9.70;92.50;;;;;;5087359;28;20046;-69
2023/12/21 01:09:40;;;;;;;0.20;0.20;;;9.70;92.50;;;;;;5087657;28;20036;-69
2023/12/21 01:12:07;;;;;;;0.00;0.00;;;9.60;92.80;;;;;;5087092;28;20067;-69
2023/12/21 01:14:32;;;;;;;0.00;0.00;;;9.60;92.80;;;;;;5087616;28;20036;-68
2023/12/21 01:16:59;;;;;;;0.03;0.03;;;9.70;92.80;;;;;;5087703;28;20063;-69
2023/12/21 01:19:24;;;;;;;0.00;0.00;;;9.60;93.00;;;;;;5087746;28;20058;-69
2023/12/21 01:21:50;;;;;;;0.22;0.22;;;9.60;92.90;;;;;;5087445;28;20048;-69
2023/12/21 01:24:15;;;;;;;0.77;0.77;;;9.60;92.90;;;;;;5087220;28;20040;-68
2023/12/21 01:26:42;;;;;;;0.00;0.00;;;9.60;92.90;;;;;;5068144;28;20131;-69
2023/12/21 01:29:08;;;;;;;0.10;0.10;;;9.60;92.90;;;;;;5087054;28;20048;-69
2023/12/21 01:31:33;;;;;;;0.00;0.00;;;9.60;92.90;;;;;;5087212;28;20097;-69
2023/12/21 01:33:59;;;;;;;0.10;0.10;;;9.60;92.80;;;;;;5087281;28;20119;-69
2023/12/21 01:36:26;;;;;;;0.20;0.20;;;9.70;92.80;;;;;;5087256;28;20046;-68
2023/12/21 01:38:52;;;;;;;0.00;0.00;;;9.70;92.70;;;;;;5071605;28;20056;-69
2023/12/21 01:41:18;;;;;;;0.08;0.08;;;9.60;92.60;;;;;;5091181;28;20051;-69
2023/12/21 01:43:43;;;;;;;0.00;0.00;;;9.60;92.60;;;;;;5090937;28;20082;-68
2023/12/21 01:46:09;;;;;;;0.00;0.00;;;9.70;92.80;;;;;;5090758;28;20044;-69
2023/12/21 01:48:36;;;;;;;0.00;0.00;;;9.60;92.60;;;;;;5090321;28;20518;-69
2023/12/21 01:51:04;;;;;;;0.08;0.08;;;9.70;92.70;;;;;;5089723;28;20083;-69
2023/12/21 01:53:31;;;;;;;0.03;0.03;;;9.80;92.50;;;;;;5091088;28;20046;-69
2023/12/21 01:55:57;;;;;;;0.03;0.03;;;9.70;92.50;;;;;;5090220;28;20071;-69
2023/12/21 01:58:23;;;;;;;0.00;0.00;;;9.70;92.60;;;;;;5090905;28;20079;-69
2023/12/21 02:00:49;;;;;;;0.00;0.00;;;9.60;92.80;;;;;;5089644;28;20047;-69
2023/12/21 02:03:16;;;;;;;0.00;0.00;;;9.70;92.70;;;;;;5090383;28;20048;-69
2023/12/21 02:05:41;;;;;;;0.00;0.00;;;9.70;92.80;;;;;;5090655;28;20123;-69
2023/12/21 02:08:07;;;;;;;0.00;0.00;;;9.70;92.80;;;;;;5090415;28;20131;-69
2023/12/21 02:10:33;;;;;;;0.35;0.35;;;9.80;92.70;;;;;;5090823;28;20098;-69
2023/12/21 02:12:59;;;;;;;0.10;0.10;;;9.70;92.80;;;;;;5090127;28;20413;-69
2023/12/21 02:15:25;;;;;;;0.00;0.00;;;9.70;92.80;;;;;;5090154;28;20482;-69
2023/12/21 02:17:52;;;;;;;0.00;0.00;;;9.70;92.90;;;;;;5090354;28;20050;-69
2023/12/21 02:20:19;;;;;;;0.00;0.00;;;9.70;92.90;;;;;;5090145;28;20040;-69
2023/12/21 02:22:47;;;;;;;0.00;0.00;;;9.60;92.80;;;;;;5089662;28;20572;-69
2023/12/21 02:25:14;;;;;;;0.10;0.10;;;9.70;92.80;;;;;;5089633;28;20044;-69
2023/12/21 02:27:39;;;;;;;0.00;0.00;;;9.70;92.70;;;;;;5089676;28;20095;-69
2023/12/21 02:30:06;;;;;;;0.00;0.00;;;9.70;92.70;;;;;;5089370;28;20082;-69
2023/12/21 02:32:32;;;;;;;0.08;0.08;;;9.80;92.90;;;;;;5089877;28;20044;-69
2023/12/21 02:34:58;;;;;;;0.00;0.00;;;9.80;92.60;;;;;;5089868;28;20039;-69
2023/12/21 02:37:23;;;;;;;0.20;0.20;;;9.80;92.60;;;;;;5090229;28;20040;-69
2023/12/21 02:39:49;;;;;;;0.40;0.40;;;9.80;92.70;;;;;;5089330;28;20068;-69
2023/12/21 02:42:14;;;;;;;0.00;0.00;;;9.70;92.90;;;;;;5089871;28;20036;-69
2023/12/21 02:44:40;;;;;;;1.85;0.85;;;9.70;93.10;;;;;;5089520;28;20040;-69
2023/12/21 02:47:06;;;;;;;2.17;2.05;;;9.70;93.20;;;;;;5089631;28;20044;-69
2023/12/21 02:49:31;;;;;;;0.00;0.00;;;9.60;93.10;;;;;;5089116;28;20044;-69
2023/12/21 02:51:57;;;;;;;0.00;0.00;;;9.70;93.30;;;;;;5089699;28;20158;-69
2023/12/21 02:54:23;;;;;;;10.98;1.75;;;9.60;93.30;;;;;;5089193;28;20036;-69
2023/12/21 02:56:48;;;;;;;1.08;1.08;;;9.60;93.50;;;;;;5089302;28;20036;-69
2023/12/21 02:59:14;;;;;;;0.08;0.08;;;9.60;93.50;;;;;;5089623;28;20078;-69
2023/12/21 03:01:43;;;;;;;0.25;0.25;;;9.60;93.40;;;;;;5089735;28;20056;-69
2023/12/21 03:04:10;;;;;;;0.00;0.00;;;9.60;93.40;;;;;;5088678;28;20398;-69
2023/12/21 03:06:36;;;;;;;0.47;0.47;;;9.60;93.70;;;;;;5089544;28;20058;-69
2023/12/21 03:09:01;;;;;;;0.30;0.30;;;9.60;93.80;;;;;;5089004;28;20044;-69
2023/12/21 03:11:27;;;;;;;0.00;0.00;;;9.50;93.80;;;;;;5071228;28;20048;-69
2023/12/21 03:13:53;;;;;;;0.00;0.00;;;9.50;93.80;;;;;;5070434;28;20109;-68
2023/12/21 03:16:18;;;;;;;14.27;3.50;;;9.50;93.80;;;;;;5088923;28;20048;-68
2023/12/21 03:18:47;;;;;;;0.10;0.10;;;9.50;93.80;;;;;;5088629;28;20448;-69
2023/12/21 03:21:15;;;;;;;0.32;0.32;;;9.60;93.80;;;;;;5070556;28;20507;-69
2023/12/21 03:23:41;;;;;;;0.20;0.20;;;9.50;93.80;;;;;;5088020;28;20044;-69
2023/12/21 03:26:08;;;;;;;0.00;0.00;;;9.50;93.90;;;;;;5088631;28;20052;-69
2023/12/21 03:28:34;;;;;;;0.00;0.00;;;9.50;93.80;;;;;;5087898;28;20387;-69
2023/12/21 03:31:01;;;;;;;0.03;0.03;;;9.50;93.70;;;;;;5088625;28;20085;-69
2023/12/21 03:33:26;;;;;;;0.00;0.00;;;9.50;93.70;;;;;;5088556;28;20091;-69
2023/12/21 03:35:52;;;;;;;0.20;0.20;;;9.50;93.50;;;;;;5088442;28;20083;-69
2023/12/21 03:38:18;;;;;;;0.90;0.90;;;9.60;93.50;;;;;;5088662;28;20869;-69
2023/12/21 03:40:43;;;;;;;5.47;3.30;;;9.60;93.20;;;;;;5088599;28;20040;-69
2023/12/21 03:43:09;;;;;;;0.00;0.00;;;9.60;93.10;;;;;;5088516;28;20058;-69
2023/12/21 03:45:39;;;;;;;0.00;0.00;;;9.70;92.90;;;;;;5088206;28;20115;-69
2023/12/21 03:48:10;;;;;;;1.55;1.45;;;9.70;93.00;;;;;;5088314;28;20080;-69
2023/12/21 03:50:36;;;;;;;2.25;0.90;;;9.70;92.80;;;;;;5088513;28;20057;-69
2023/12/21 03:53:02;;;;;;;0.00;0.00;;;9.70;92.60;;;;;;5087835;28;20505;-69
2023/12/21 03:55:27;;;;;;;1.23;1.17;;;9.70;92.70;;;;;;5088268;28;20090;-69
2023/12/21 03:57:53;;;;;;;0.00;0.00;;;9.70;92.60;;;;;;5070377;28;20039;-69
2023/12/21 04:00:19;;;;;;;0.00;0.00;;;9.60;92.70;;;;;;5069386;28;20928;-69
2023/12/21 04:02:45;;;;;;;0.00;0.00;;;9.70;92.60;;;;;;5104033;28;20044;-69
2023/12/21 04:05:11;;;;;;;0.00;0.00;;;9.60;92.80;;;;;;5088751;28;20039;-69
2023/12/21 04:07:37;;;;;;;0.10;0.10;;;9.60;92.80;;;;;;5088441;28;20047;-69
2023/12/21 04:10:03;;;;;;;1.98;1.85;;;9.60;93.00;;;;;;5087973;28;20560;-69
2023/12/21 04:12:28;;;;;;;11.98;2.20;;;9.60;92.90;;;;;;5087878;28;20131;-69
2023/12/21 04:14:54;;;;;;;0.00;0.00;;;9.60;93.20;;;;;;5088018;28;20093;-69
2023/12/21 04:17:20;;;;;;;0.10;0.10;;;9.60;93.30;;;;;;5087724;28;20522;-69
2023/12/21 04:19:45;;;;;;;0.10;0.10;;;9.60;93.30;;;;;;5088039;28;20065;-69
2023/12/21 04:22:11;;;;;;;0.10;0.10;;;9.50;93.40;;;;;;5087453;28;20054;-68
2023/12/21 04:24:37;;;;;;;0.00;0.00;;;9.60;93.50;;;;;;5088014;28;20050;-69
2023/12/21 04:27:03;;;;;;;0.00;0.00;;;9.50;93.40;;;;;;5086988;28;20119;-69
2023/12/21 04:29:28;;;;;;;0.00;0.00;;;9.50;93.50;;;;;;5087812;28;20055;-69
2023/12/21 04:31:54;;;;;;;0.00;0.00;;;9.50;93.50;;;;;;5087691;28;20414;-69
2023/12/21 04:34:19;;;;;;;0.88;0.80;;;9.50;93.60;;;;;;5087854;28;20510;-69
2023/12/21 04:36:45;;;;;;;0.05;0.05;;;9.50;93.50;;;;;;5087415;28;20076;-69
2023/12/21 04:39:11;;;;;;;10.77;2.15;;;9.50;93.30;;;;;;5087523;28;20032;-69
2023/12/21 04:41:37;;;;;;;0.00;0.00;;;9.50;93.30;;;;;;5087365;28;20512;-68
2023/12/21 04:44:04;;;;;;;0.00;0.00;;;9.50;93.10;;;;;;5087673;28;20047;-69
2023/12/21 04:46:29;;;;;;;0.00;0.00;;;9.60;93.20;;;;;;5087793;28;20048;-69
2023/12/21 04:48:55;;;;;;;0.00;0.00;;;9.60;93.20;;;;;;5087329;28;20051;-68
2023/12/21 04:51:21;;;;;;;4.18;3.20;;;9.60;92.90;;;;;;5087788;28;20492;-69
2023/12/21 04:53:46;;;;;;;0.22;0.22;;;9.60;92.90;;;;;;5068736;28;20048;-68
2023/12/21 04:56:12;;;;;;;0.05;0.05;;;9.60;92.90;;;;;;5087166;28;20040;-68
2023/12/21 04:58:40;;;;;;;0.00;0.00;;;9.60;92.90;;;;;;5083949;28;20101;-68
2023/12/21 05:01:07;;;;;;;0.03;0.03;;;9.60;92.70;;;;;;5086815;28;20036;-68
2023/12/21 05:03:32;;;;;;;0.30;0.30;;;9.60;92.80;;;;;;5067508;28;20043;-68
2023/12/21 05:05:58;;;;;;;0.30;0.30;;;9.70;92.60;;;;;;5081984;28;20098;-69
2023/12/21 05:08:24;;;;;;;0.00;0.00;;;9.70;92.60;;;;;;5086913;28;20032;-69
2023/12/21 05:10:50;;;;;;;0.00;0.00;;;9.70;92.40;;;;;;5086921;28;20047;-69
2023/12/21 05:13:16;;;;;;;19.45;1.35;;;9.80;92.10;;;;;;5088442;28;20407;-69
2023/12/21 05:15:42;;;;;;;0.00;0.00;;;9.80;92.10;;;;;;5085492;28;20040;-68
2023/12/21 05:18:08;;;;;;;0.10;0.10;;;9.80;92.10;;;;;;5090225;28;20040;-69
2023/12/21 05:20:34;;;;;;;0.00;0.00;;;9.90;91.90;;;;;;5089616;28;20048;-69
2023/12/21 05:23:00;;;;;;;0.30;0.30;;;9.80;91.80;;;;;;5089168;28;20376;-68
2023/12/21 05:25:26;;;;;;;0.00;0.00;;;9.80;91.90;;;;;;5089333;28;20055;-69
2023/12/21 05:27:52;;;;;;;0.30;0.30;;;9.90;91.90;;;;;;5070930;28;20403;-69
2023/12/21 05:30:18;;;;;;;0.32;0.32;;;9.90;91.70;;;;;;5071816;28;20044;-68
2023/12/21 05:32:44;;;;;;;0.00;0.00;;;9.90;91.70;;;;;;5091270;28;20056;-69
2023/12/21 05:35:11;;;;;;;0.00;0.00;;;9.90;91.70;;;;;;5090999;28;20054;-68
2023/12/21 05:37:37;;;;;;;0.00;0.00;;;9.90;91.80;;;;;;5091803;28;20055;-69
2023/12/21 05:40:03;;;;;;;0.10;0.10;;;10.10;91.80;;;;;;5091404;28;20040;-69
2023/12/21 05:42:29;;;;;;;0.00;0.00;;;10.00;91.70;;;;;;5091357;28;20165;-69
2023/12/21 05:44:55;;;;;;;0.00;0.00;;;10.10;91.50;;;;;;5090895;28;20140;-69
2023/12/21 05:47:20;;;;;;;0.05;0.05;;;10.00;91.30;;;;;;5091412;28;20085;-69
2023/12/21 05:49:46;;;;;;;0.00;0.00;;;10.10;91.40;;;;;;5090620;28;20153;-69
2023/12/21 05:52:12;;;;;;;0.00;0.00;;;10.00;91.40;;;;;;5091435;28;20721;-69
2023/12/21 05:54:38;;;;;;;0.00;0.00;;;10.10;91.20;;;;;;5091458;28;20155;-69
2023/12/21 05:57:05;;;;;;;2.83;1.88;;;10.10;91.30;;;;;;5090752;28;20160;-69
2023/12/21 05:59:30;;;;;;;0.00;0.00;;;10.10;91.30;;;;;;5090914;28;20048;-69
2023/12/21 06:01:56;;;;;;;0.88;0.57;;;10.10;91.20;;;;;;5089754;28;20082;-69
2023/12/21 06:04:22;;;;;;;0.00;0.00;;;10.00;91.40;;;;;;5090039;28;20044;-69
2023/12/21 06:06:48;;;;;;;1.67;1.45;;;10.00;91.50;;;;;;5089658;28;20127;-69
2023/12/21 06:09:14;;;;;;;0.00;0.00;;;10.00;91.90;;;;;;5089380;28;20143;-69
2023/12/21 06:11:40;;;;;;;6.38;1.40;;;10.10;91.70;;;;;;5089138;28;20086;-69
2023/12/21 06:14:07;;;;;;;0.00;0.00;;;10.00;91.80;;;;;;5089310;28;20046;-69
2023/12/21 06:16:32;;;;;;;0.00;0.00;;;9.90;92.00;;;;;;5090018;28;20056;-69
2023/12/21 06:18:59;;;;;;;0.00;0.00;;;9.90;92.30;;;;;;5089520;28;20028;-69
2023/12/21 06:21:25;;;;;;;0.15;0.15;;;9.90;92.70;;;;;;5089064;28;20052;-69
2023/12/21 06:23:51;;;;;;;0.10;0.10;;;9.90;92.60;;;;;;5070312;28;20043;-69
2023/12/21 06:26:16;;;;;;;0.00;0.00;;;9.80;92.90;;;;;;5089290;28;20087;-69
2023/12/21 06:28:42;;;;;;;0.10;0.10;;;9.70;93.10;;;;;;5071473;28;20083;-68
2023/12/21 06:31:09;;;;;;;0.00;0.00;;;9.70;93.20;;;;;;5088621;28;20054;-70
2023/12/21 06:33:34;;;;;;;0.00;0.00;;;9.70;93.30;;;;;;5088438;28;20139;-69
2023/12/21 06:36:00;;;;;;;0.10;0.10;;;9.70;93.50;;;;;;5088627;28;20127;-69
2023/12/21 06:38:26;;;;;;;0.10;0.10;;;9.70;93.40;;;;;;5088811;28;20503;-69
2023/12/21 06:40:52;;;;;;;0.08;0.08;;;9.70;93.60;;;;;;5089313;28;20087;-69
2023/12/21 06:43:19;;;;;;;0.00;0.00;;;9.70;93.70;;;;;;5088841;28;20144;-69
2023/12/21 06:45:47;;;;;;;0.00;0.00;;;9.60;93.70;;;;;;5088139;28;20154;-69
2023/12/21 06:48:13;;;;;;;0.00;0.00;;;9.60;93.90;;;;;;5089194;28;20510;-69
2023/12/21 06:50:39;;;;;;;0.05;0.05;;;9.60;93.90;;;;;;5089069;28;20509;-69
2023/12/21 06:53:05;;;;;;;0.00;0.00;;;9.60;94.00;;;;;;5089258;28;20040;-69
2023/12/21 06:55:30;;;;;;;0.10;0.10;;;9.60;94.00;;;;;;5088629;28;20048;-68
2023/12/21 06:57:56;;;;;;;0.00;0.00;;;9.60;94.30;;;;;;5088277;28;20531;-70
2023/12/21 07:00:22;;;;;;;0.00;0.00;;;9.60;94.00;;;;;;5087853;28;20036;-69
2023/12/21 07:02:48;;;;;;;0.45;0.45;;;9.60;94.10;;;;;;5088067;28;20060;-69
2023/12/21 07:05:14;;;;;;;2.22;2.13;;;9.60;94.20;;;;;;5088451;28;20439;-69
2023/12/21 07:07:40;;;;;;;0.50;0.38;;;9.60;94.30;;;;;;5070826;28;20105;-71
2023/12/21 07:10:06;;;;;;;0.00;0.00;;;9.50;94.40;;;;;;5068614;28;20043;-70
2023/12/21 07:12:32;;;;;;;0.00;0.00;;;9.60;94.20;;;;;;5072996;28;20059;-70
2023/12/21 07:14:57;;;;;;;0.00;0.00;;;9.60;94.20;;;;;;5087082;28;20121;-69
2023/12/21 07:17:23;;;;;;;0.10;0.10;;;9.60;94.10;;;;;;5086697;28;20052;-69
2023/12/21 07:19:51;;;;;;;0.00;0.00;;;9.60;94.30;;;;;;5087330;28;20055;-69
2023/12/21 07:22:17;;;;;;;0.00;0.00;;;9.60;94.20;;;;;;5088265;28;20044;-69
2023/12/21 07:24:43;;;;;;;0.63;0.63;;;9.60;94.20;;;;;;5087918;28;20517;-69
2023/12/21 07:27:08;;;;;;;0.20;0.20;;;9.60;94.20;;;;;;5089253;28;20114;-69
2023/12/21 07:29:35;;;;;;;0.00;0.00;;;9.60;94.20;;;;;;5088436;28;20056;-69
2023/12/21 07:32:00;;;;;;;0.45;0.45;;;9.50;94.10;;;;;;5087580;28;20101;-69
2023/12/21 07:34:28;;;;;;;3.10;0.38;;;9.60;94.30;;;;;;5087307;28;20086;-70
2023/12/21 07:36:54;;;;;;;0.95;0.70;;;9.60;94.20;;;;;;5077684;28;20762;-70
2023/12/21 07:39:19;;;;;;;0.52;0.52;;;9.60;94.30;;;;;;5082514;28;20135;-70
2023/12/21 07:41:45;;;;;;;0.68;0.68;;;9.60;94.40;;;;;;5085953;28;20039;-70
2023/12/21 07:44:11;;;;;;;0.00;0.00;;;9.60;94.50;;;;;;5086377;28;20051;-70
2023/12/21 07:46:37;;;;;;;0.08;0.08;;;9.60;94.60;;;;;;5082373;28;20044;-70
2023/12/21 07:49:03;;;;;;;0.00;0.00;;;9.60;94.60;;;;;;5087002;28;20133;-70
2023/12/21 07:51:29;;;;;;;2.22;1.50;;;9.60;94.60;;;;;;5085950;28;20118;-70
2023/12/21 07:53:54;;;;;;;0.00;0.00;;;9.60;94.70;;;;;;5080539;28;20131;-71
2023/12/21 07:56:21;;;;;;;0.08;0.08;;;9.70;94.60;;;;;;5077795;28;20033;-71
2023/12/21 07:58:46;;;;;;;0.00;0.00;;;9.60;94.60;;;;;;5064843;28;20510;-70
2023/12/21 08:01:12;;;;;;;0.10;0.10;;;9.70;94.50;;;;;;5051202;28;20051;-71
2023/12/21 08:03:38;;;;;;;0.00;0.00;;;9.70;94.40;;;;;;5084824;28;20134;-71
2023/12/21 08:06:04;;;;;;;0.00;0.00;;;9.60;94.30;;;;;;5086356;28;20063;-70
2023/12/21 08:08:29;;;;;;;0.05;0.05;;;9.60;94.30;;;;;;5086566;28;20510;-71
2023/12/21 08:10:56;;;;;;;0.00;0.00;;;9.70;94.20;;;;;;5085607;28;20036;-72
2023/12/21 08:13:22;;;;;;;0.00;0.00;;;9.80;94.30;;;;;;5082440;28;20044;-71
2023/12/21 08:15:48;;;;;;;0.43;0.43;;;9.90;93.80;;;;;;5084897;28;20036;-70
2023/12/21 08:18:13;;;;;;;0.80;0.60;;;10.00;93.50;;;;;;5081946;28;20520;-71
2023/12/21 08:20:42;;;;;;;0.00;0.00;;;10.10;93.20;;;;;;5083938;28;20040;-70
2023/12/21 08:23:08;;;;;;;0.10;0.10;;;10.10;92.90;;;;;;5085260;28;20498;-71
2023/12/21 08:25:34;;;;;;;0.63;0.63;;;10.20;92.80;;;;;;5086002;28;20047;-70
2023/12/21 08:27:59;;;;;;;0.00;0.00;;;10.30;92.60;;;;;;5085451;28;20863;-71
2023/12/21 08:30:25;;;;;;;0.25;0.25;;;10.40;92.30;;;;;;5064014;28;20059;-72
2023/12/21 08:32:51;;;;;;;0.00;0.00;;;10.40;92.10;;;;;;5081934;28;20036;-71
2023/12/21 08:35:17;;;;;;;0.00;0.00;;;10.40;92.60;;;;;;5065984;28;20040;-70
2023/12/21 08:37:43;;;;;;;0.00;0.00;;;10.40;92.70;;;;;;5079353;28;20044;-71
2023/12/21 08:40:10;;;;;;;0.08;0.08;;;10.40;92.90;;;;;;5082816;28;20150;-71
2023/12/21 08:42:36;;;;;;;0.00;0.00;;;10.40;92.90;;;;;;5084770;28;20036;-70
2023/12/21 08:45:05;;;;;;;4.68;3.00;;;10.30;93.00;;;;;;5082180;28;20039;-72
2023/12/21 08:47:32;;;;;;;0.65;0.65;;;10.30;93.20;;;;;;5083590;28;20044;-72
2023/12/21 08:50:03;;;;;;;0.30;0.30;;;10.30;93.20;;;;;;5081248;28;20135;-72
2023/12/21 08:52:29;;;;;;;0.10;0.10;;;10.30;93.00;;;;;;5066911;28;20468;-72
2023/12/21 08:54:55;;;;;;;0.00;0.00;;;10.40;92.90;;;;;;5084404;28;20044;-71
2023/12/21 08:57:21;;;;;;;0.10;0.10;;;10.40;93.00;;;;;;5085230;28;20066;-72
2023/12/21 08:59:47;;;;;;;0.00;0.00;;;10.40;92.90;;;;;;5082759;28;20039;-72
2023/12/21 09:02:16;;;;;;;1.48;0.88;;;10.40;93.10;;;;;;5081426;28;20107;-72
2023/12/21 09:04:41;;;;;;;2.40;1.55;;;10.40;93.10;;;;;;5083288;28;20036;-71
2023/12/21 09:07:07;;;;;;;0.00;0.00;;;10.50;93.00;;;;;;5082564;28;20028;-72
2023/12/21 09:09:32;;;;;;;0.03;0.03;;;10.50;93.00;;;;;;5084006;28;20040;-71
2023/12/21 09:11:58;;;;;;;0.00;0.00;;;10.40;93.00;;;;;;5046921;28;20080;-71
2023/12/21 09:14:24;;;;;;;0.10;0.10;;;10.50;92.80;;;;;;5081484;28;20109;-71
2023/12/21 09:16:51;;;;;;;0.00;0.00;;;10.60;92.60;;;;;;5083219;28;20390;-74
2023/12/21 09:19:17;;;;;;;1.17;1.08;;;10.60;92.30;;;;;;5063116;28;20048;-72
2023/12/21 09:21:43;;;;;;;0.00;0.00;;;10.60;92.30;;;;;;5082732;28;20046;-72
2023/12/21 09:24:08;;;;;;;0.00;0.00;;;10.60;92.20;;;;;;5082371;28;20048;-73
2023/12/21 09:26:34;;;;;;;0.08;0.08;;;10.60;92.20;;;;;;5085565;28;20072;-73
2023/12/21 09:29:04;;;;;;;0.00;0.00;;;10.70;92.50;;;;;;5080890;28;20607;-72
2023/12/21 09:31:32;;;;;;;0.55;0.55;;;10.60;92.80;;;;;;5083287;28;20486;-70
2023/12/21 09:33:59;;;;;;;0.00;0.00;;;10.60;92.40;;;;;;5076086;28;20043;-72
2023/12/21 09:36:25;;;;;;;0.75;0.75;;;10.70;92.20;;;;;;5080177;28;20044;-72
2023/12/21 09:38:52;;;;;;;0.05;0.05;;;10.70;92.20;;;;;;5068788;28;20421;-72
2023/12/21 09:41:18;;;;;;;0.00;0.00;;;10.70;92.20;;;;;;5084376;28;20079;-72
2023/12/21 09:43:47;;;;;;;1.77;1.65;;;10.70;92.10;;;;;;5084521;28;20040;-71
2023/12/21 09:46:14;;;;;;;0.00;0.00;;;10.70;91.90;;;;;;5066586;28;20052;-71
2023/12/21 09:48:42;;;;;;;0.00;0.00;;;10.80;91.90;;;;;;5082160;28;21303;-72
2023/12/21 09:51:10;;;;;;;1.38;1.27;;;10.80;92.00;;;;;;5065924;28;20846;-72
2023/12/21 09:53:36;;;;;;;0.00;0.00;;;10.80;91.80;;;;;;5084862;28;20048;-72
2023/12/21 09:56:02;;;;;;;0.80;0.80;;;10.80;91.70;;;;;;5084415;28;20487;-72
2023/12/21 09:58:30;;;;;;;0.00;0.00;;;10.90;91.60;;;;;;5081679;28;20047;-71
2023/12/21 10:00:56;;;;;;;0.10;0.10;;;10.90;91.20;;;;;;5087413;28;20059;-72
2023/12/21 10:03:22;;;;;;;0.17;0.17;;;11.00;90.90;;;;;;5087504;28;20418;-72
2023/12/21 10:05:48;;;;;;;0.15;0.15;;;11.00;90.70;;;;;;5083341;28;20036;-72
2023/12/21 10:08:15;;;;;;;2.45;0.98;;;11.10;90.00;;;;;;5089984;28;20699;-73
2023/12/21 10:10:41;;;;;;;1.48;0.75;;;11.10;90.40;;;;;;5086790;28;20046;-74
2023/12/21 10:13:06;;;;;;;1.48;1.38;;;11.00;90.20;;;;;;5085333;28;20085;-72
2023/12/21 10:15:35;;;;;;;0.52;0.52;;;11.10;90.20;;;;;;5088773;28;20390;-73
2023/12/21 10:18:03;;;;;;;0.10;0.10;;;11.10;90.20;;;;;;5086003;28;20124;-73
2023/12/21 10:20:29;;;;;;;0.00;0.00;;;11.10;90.10;;;;;;5085513;28;20055;-73
2023/12/21 10:22:56;;;;;;;0.10;0.10;;;11.10;90.10;;;;;;5084615;28;20056;-72
2023/12/21 10:25:22;;;;;;;0.00;0.00;;;11.10;89.70;;;;;;5088380;28;20556;-72
2023/12/21 10:27:55;;;;;;;0.20;0.20;;;11.10;89.50;;;;;;5087041;28;20092;-73
2023/12/21 10:30:25;;;;;;;0.00;0.00;;;11.20;89.50;;;;;;5086878;28;20147;-74
2023/12/21 10:32:57;;;;;;;0.08;0.08;;;11.20;89.20;;;;;;5087523;28;20484;-73
2023/12/21 10:35:23;;;;;;;0.43;0.43;;;11.30;88.90;;;;;;5087060;28;20125;-72
2023/12/21 10:37:49;;;;;;;0.30;0.30;;;11.30;89.00;;;;;;5089223;28;20075;-72
2023/12/21 10:40:15;;;;;;;0.10;0.10;;;11.30;88.70;;;;;;5089130;28;20121;-73
2023/12/21 10:42:48;;;;;;;1.48;0.88;;;11.30;88.30;;;;;;5087231;28;20044;-73
2023/12/21 10:45:21;;;;;;;0.22;0.22;;;11.30;88.50;;;;;;5087653;28;20490;-73
2023/12/21 10:47:55;;;;;;;0.47;0.47;;;11.40;88.60;;;;;;5083809;28;20380;-72
2023/12/21 10:50:21;;;;;;;4.63;2.55;;;11.30;88.60;;;;;;5066107;28;20048;-72
2023/12/21 10:52:47;;;;;;;0.00;0.00;;;11.30;88.40;;;;;;5084943;28;20028;-72
2023/12/21 10:55:17;;;;;;;0.20;0.20;;;11.20;88.70;;;;;;5087498;28;20070;-73
2023/12/21 10:57:44;;;;;;;3.50;1.75;;;11.20;88.70;;;;;;5085490;28;20082;-72
2023/12/21 11:00:13;;;;;;;0.00;0.00;;;11.30;88.60;;;;;;5084317;28;20055;-72
2023/12/21 11:02:48;;;;;;;0.17;0.17;;;11.20;88.70;;;;;;5082407;28;20076;-71
2023/12/21 11:05:22;;;;;;;0.25;0.25;;;11.20;88.60;;;;;;5083291;28;20911;-71
2023/12/21 11:07:53;;;;;;;0.00;0.00;;;11.10;88.70;;;;;;5081834;28;20047;-72
2023/12/21 11:10:21;;;;;;;0.00;0.00;;;11.10;88.90;;;;;;5087505;28;20147;-70
2023/12/21 11:12:48;;;;;;;1.20;1.17;;;11.20;88.50;;;;;;5084612;28;20051;-71
2023/12/21 11:15:15;;;;;;;17.38;1.17;;;11.20;87.80;;;;;;5083073;28;20082;-73
2023/12/21 11:17:45;;;;;;;0.75;0.75;;;11.20;87.20;;;;;;5083474;28;20040;-73
2023/12/21 11:20:16;;;;;;;0.00;0.00;;;11.30;86.90;;;;;;5084625;28;20036;-71
2023/12/21 11:22:43;;;;;;;0.10;0.10;;;11.40;86.60;;;;;;5084777;28;20059;-69
2023/12/21 11:25:12;;;;;;;0.10;0.10;;;11.50;86.00;;;;;;5084106;28;20040;-71
2023/12/21 11:27:40;;;;;;;0.00;0.00;;;11.50;85.80;;;;;;5085359;28;20039;-72
2023/12/21 11:30:14;;;;;;;0.00;0.00;;;11.50;86.00;;;;;;5087260;28;20039;-71
2023/12/21 11:32:41;;;;;;;0.30;0.30;;;11.40;86.20;;;;;;5082843;28;20056;-71
2023/12/21 11:35:24;;;;;;;0.52;0.52;;;11.40;86.10;;;;;;5080726;28;20538;-70
2023/12/21 11:37:54;;;;;;;0.00;0.00;;;11.60;85.50;;;;;;5085001;28;20127;-69
2023/12/21 11:40:21;;;;;;;0.55;0.55;;;11.60;85.10;;;;;;5084959;28;20173;-69
2023/12/21 11:42:48;;;;;;;0.00;0.00;;;11.50;85.50;;;;;;5086594;28;20050;-69
2023/12/21 11:45:31;;;;;;;0.08;0.08;;;11.40;85.40;;;;;;5086885;28;20044;-70
2023/12/21 11:48:04;;;;;;;0.38;0.38;;;11.60;84.90;;;;;;5086637;28;20711;-70
2023/12/21 11:50:31;;;;;;;0.00;0.00;;;11.50;85.10;;;;;;5081609;28;20036;-70
2023/12/21 11:53:08;;;;;;;0.25;0.20;;;11.60;85.30;;;;;;5081505;28;20044;-70
2023/12/21 11:55:39;;;;;;;0.00;0.00;;;11.60;85.00;;;;;;5084115;28;20075;-70
2023/12/21 11:58:18;;;;;;;0.20;0.20;;;11.50;85.20;;;;;;5086177;28;20529;-70
2023/12/21 12:00:57;;;;;;;0.00;0.00;;;11.60;84.70;;;;;;5083606;28;20089;-70
2023/12/21 12:03:27;;;;;;;0.10;0.10;;;11.60;84.00;;;;;;5081657;28;20058;-69
2023/12/21 12:06:04;;;;;;;0.08;0.08;;;11.60;84.40;;;;;;5086668;28;20036;-70
2023/12/21 12:08:33;;;;;;;0.00;0.00;;;11.50;84.30;;;;;;5087644;28;20048;-69
2023/12/21 12:10:59;;;;;;;0.00;0.00;;;11.60;84.40;;;;;;5087345;28;20048;-69
2023/12/21 12:13:25;;;;;;;0.00;0.00;;;11.60;84.60;;;;;;5088247;28;20472;-70
2023/12/21 12:15:54;;;;;;;0.20;0.20;;;11.50;84.20;;;;;;5088706;28;20044;-69
2023/12/21 12:18:23;;;;;;;0.00;0.00;;;11.40;84.50;;;;;;5087291;28;20035;-70
2023/12/21 12:20:51;;;;;;;0.00;0.00;;;11.50;84.40;;;;;;5087727;28;20123;-70
2023/12/21 12:23:18;;;;;;;0.10;0.10;;;11.40;84.30;;;;;;5086768;28;20044;-70
2023/12/21 12:25:44;;;;;;;0.10;0.10;;;11.40;84.60;;;;;;5087936;28;20043;-70
2023/12/21 12:28:10;;;;;;;0.00;0.00;;;11.40;84.50;;;;;;5103092;28;20048;-71
2023/12/21 12:30:36;;;;;;;0.00;0.00;;;11.40;84.30;;;;;;5088735;28;20098;-71
2023/12/21 12:33:05;;;;;;;0.10;0.10;;;11.50;83.90;;;;;;5089171;28;20042;-69
2023/12/21 12:35:32;;;;;;;0.00;0.00;;;11.40;84.00;;;;;;5088638;28;20048;-72
2023/12/21 12:37:58;;;;;;;0.20;0.20;;;11.40;83.60;;;;;;5086397;28;20040;-74
2023/12/21 12:40:23;;;;;;;0.10;0.10;;;11.30;83.60;;;;;;5088084;28;20611;-72
2023/12/21 12:42:50;;;;;;;0.00;0.00;;;11.30;82.80;;;;;;5087225;28;20040;-71
2023/12/21 12:45:18;;;;;;;0.00;0.00;;;11.30;83.10;;;;;;5089146;28;20052;-70
2023/12/21 12:47:44;;;;;;;2.70;1.95;;;11.30;82.60;;;;;;5088672;28;20048;-70
2023/12/21 12:50:11;;;;;;;1.73;1.60;;;11.30;83.40;;;;;;5087877;28;20044;-70